Time;durP1;ratioP1;P1;durP2;ratioP2;P2;SDS_P1;SDS_P2;PMS_P1;PMS_P2;Temp;Humidity;BMP_temperature;BMP_pressure;BME280_temperature;BME280_humidity;BME280_pressure;Samples;Min_cycle;Max_cycle;Signal;HPM_P1;HPM_P2
2022/02/15 00:01:53;;;;;;;4.73;2.40;;;8.40;99.90;;;;;;5086664;28;20414;-43
2022/02/15 00:04:18;;;;;;;4.03;2.50;;;8.60;99.90;;;;;;5088994;28;20426;-40
2022/02/15 00:06:44;;;;;;;6.83;2.47;;;8.40;99.90;;;;;;5089509;28;20555;-40
2022/02/15 00:09:10;;;;;;;7.80;2.40;;;8.30;99.90;;;;;;5087751;28;20199;-40
2022/02/15 00:11:36;;;;;;;4.60;2.67;;;8.20;99.90;;;;;;5081112;28;20436;-42
2022/02/15 00:14:02;;;;;;;4.20;2.63;;;8.10;99.90;;;;;;5087577;28;20199;-41
2022/02/15 00:16:27;;;;;;;3.10;2.43;;;8.20;99.90;;;;;;5088430;28;20602;-39
2022/02/15 00:18:53;;;;;;;4.60;2.57;;;8.20;99.90;;;;;;5089417;28;20498;-42
2022/02/15 00:21:19;;;;;;;9.10;3.07;;;8.30;99.90;;;;;;5088960;28;20188;-41
2022/02/15 00:23:45;;;;;;;5.93;2.67;;;8.30;99.90;;;;;;5089413;28;20177;-41
2022/02/15 00:26:10;;;;;;;7.10;2.50;;;8.30;99.90;;;;;;5084426;28;20431;-41
2022/02/15 00:28:36;;;;;;;6.23;2.47;;;8.40;99.90;;;;;;5083583;28;20422;-42
2022/02/15 00:31:02;;;;;;;3.83;2.63;;;8.40;99.90;;;;;;5088595;28;20322;-40
2022/02/15 00:33:27;;;;;;;3.70;2.43;;;8.30;99.90;;;;;;5089311;28;20216;-39
2022/02/15 00:35:55;;;;;;;8.40;2.87;;;8.40;99.90;;;;;;5089136;28;20188;-40
2022/02/15 00:38:21;;;;;;;6.37;2.60;;;8.40;99.90;;;;;;5089261;28;20242;-42
2022/02/15 00:40:46;;;;;;;10.23;2.47;;;8.30;99.90;;;;;;5088534;28;20418;-41
2022/02/15 00:43:12;;;;;;;6.07;3.10;;;8.20;99.90;;;;;;5077216;28;20195;-39
2022/02/15 00:45:38;;;;;;;6.70;2.50;;;8.10;99.90;;;;;;5087695;28;20624;-40
2022/02/15 00:48:03;;;;;;;6.40;2.77;;;8.20;99.90;;;;;;5089231;28;20704;-40
2022/02/15 00:50:29;;;;;;;5.67;2.80;;;8.30;99.90;;;;;;5088497;28;20651;-40
2022/02/15 00:52:55;;;;;;;2.80;2.53;;;8.00;99.90;;;;;;5085244;28;20177;-40
2022/02/15 00:55:21;;;;;;;6.23;2.80;;;8.10;99.90;;;;;;5078690;28;20239;-41
2022/02/15 00:57:46;;;;;;;2.50;2.30;;;8.00;99.90;;;;;;5077928;28;20184;-40
2022/02/15 01:00:13;;;;;;;5.43;2.60;;;8.10;99.90;;;;;;5087833;28;20212;-39
2022/02/15 01:02:39;;;;;;;5.43;2.50;;;8.00;99.90;;;;;;5088649;28;20180;-41
2022/02/15 01:05:05;;;;;;;4.80;2.90;;;7.90;99.90;;;;;;5088329;28;20812;-43
2022/02/15 01:07:32;;;;;;;6.90;2.70;;;7.90;99.90;;;;;;5088705;28;20626;-41
2022/02/15 01:09:57;;;;;;;3.77;2.57;;;8.00;99.90;;;;;;5086228;28;20415;-40
2022/02/15 01:12:24;;;;;;;7.03;2.87;;;7.90;99.90;;;;;;5079327;28;20860;-40
2022/02/15 01:14:50;;;;;;;7.00;3.07;;;8.00;99.90;;;;;;5088351;28;20181;-41
2022/02/15 01:17:15;;;;;;;8.10;3.37;;;8.00;99.90;;;;;;5088474;28;20791;-40
2022/02/15 01:19:41;;;;;;;4.93;2.20;;;8.10;99.90;;;;;;5087720;28;21024;-40
2022/02/15 01:22:07;;;;;;;5.67;3.20;;;8.20;99.90;;;;;;5088742;28;20294;-39
2022/02/15 01:24:32;;;;;;;3.97;2.43;;;7.90;99.90;;;;;;5088344;28;20226;-42
2022/02/15 01:26:58;;;;;;;5.87;2.77;;;7.90;99.90;;;;;;5081498;28;20185;-42
2022/02/15 01:29:25;;;;;;;4.87;2.80;;;8.20;99.90;;;;;;5085623;28;20188;-40
2022/02/15 01:31:51;;;;;;;6.87;2.80;;;8.00;99.90;;;;;;5087497;28;20435;-40
2022/02/15 01:34:17;;;;;;;8.73;3.07;;;8.10;99.90;;;;;;5088204;28;20591;-41
2022/02/15 01:36:42;;;;;;;4.83;3.00;;;8.10;99.90;;;;;;5087970;28;20521;-39
2022/02/15 01:39:08;;;;;;;5.70;2.67;;;8.30;99.90;;;;;;5087925;28;20956;-43
2022/02/15 01:41:34;;;;;;;5.97;3.47;;;8.30;99.90;;;;;;5083897;28;20250;-41
2022/02/15 01:43:59;;;;;;;5.47;3.50;;;8.20;99.90;;;;;;5081853;28;20564;-40
2022/02/15 01:46:25;;;;;;;6.30;3.63;;;8.00;99.90;;;;;;5086569;28;20229;-40
2022/02/15 01:48:51;;;;;;;9.23;3.90;;;8.10;99.90;;;;;;5088164;28;20227;-40
2022/02/15 01:51:17;;;;;;;10.23;3.30;;;7.90;99.90;;;;;;5086900;28;20657;-40
2022/02/15 01:53:43;;;;;;;6.47;4.33;;;8.00;99.90;;;;;;5087839;28;20439;-42
2022/02/15 01:56:10;;;;;;;6.80;4.43;;;7.70;99.90;;;;;;5087223;28;20528;-41
2022/02/15 01:58:36;;;;;;;5.30;3.57;;;8.10;99.90;;;;;;5079032;28;20443;-40
2022/02/15 02:01:02;;;;;;;9.50;3.53;;;8.00;99.90;;;;;;5085653;28;20418;-41
2022/02/15 02:03:28;;;;;;;7.77;3.70;;;8.00;99.90;;;;;;5087128;28;20410;-40
2022/02/15 02:05:55;;;;;;;7.20;3.90;;;7.90;99.90;;;;;;5086876;28;20441;-40
2022/02/15 02:08:27;;;;;;;5.77;3.20;;;8.10;99.90;;;;;;5087623;28;20176;-41
2022/02/15 02:10:54;;;;;;;7.80;3.60;;;7.80;99.90;;;;;;5084010;28;20533;-41
2022/02/15 02:13:20;;;;;;;7.63;3.50;;;8.00;99.90;;;;;;5071937;28;20447;-43
2022/02/15 02:15:47;;;;;;;9.00;3.57;;;7.90;99.90;;;;;;5087700;28;20756;-41
2022/02/15 02:18:13;;;;;;;5.53;2.83;;;7.90;99.90;;;;;;5087387;28;20413;-40
2022/02/15 02:20:40;;;;;;;3.67;2.80;;;8.00;99.90;;;;;;5086825;28;20454;-41
2022/02/15 02:23:09;;;;;;;10.57;4.00;;;8.10;99.90;;;;;;5087148;28;20513;-40
2022/02/15 02:25:35;;;;;;;10.40;4.10;;;8.00;99.90;;;;;;5087753;28;20461;-40
2022/02/15 02:28:02;;;;;;;6.40;3.73;;;8.00;99.90;;;;;;5077138;28;20524;-39
2022/02/15 02:30:28;;;;;;;7.63;4.00;;;8.00;99.90;;;;;;5085150;28;20418;-41
2022/02/15 02:32:53;;;;;;;10.40;4.40;;;8.20;99.90;;;;;;5087191;28;20430;-39
2022/02/15 02:35:20;;;;;;;8.30;4.07;;;7.80;99.90;;;;;;5087725;28;20191;-40
2022/02/15 02:37:46;;;;;;;8.10;5.07;;;7.80;99.90;;;;;;5085989;28;20176;-45
2022/02/15 02:40:12;;;;;;;10.47;5.80;;;8.00;99.90;;;;;;5086587;28;20462;-43
2022/02/15 02:42:39;;;;;;;6.00;4.47;;;7.90;99.90;;;;;;5081759;28;20438;-41
2022/02/15 02:45:25;;;;;;;8.70;4.60;;;8.00;99.90;;;;;;5082989;28;20506;-40
2022/02/15 02:47:53;;;;;;;9.10;5.00;;;7.90;99.90;;;;;;5082225;28;20517;-43
2022/02/15 02:50:21;;;;;;;11.73;4.90;;;8.10;99.90;;;;;;5086220;28;20786;-44
2022/02/15 02:52:47;;;;;;;11.57;5.60;;;7.90;99.90;;;;;;5087355;28;20423;-40
2022/02/15 02:55:13;;;;;;;9.93;5.20;;;8.10;99.90;;;;;;5085443;28;20469;-41
2022/02/15 02:57:40;;;;;;;7.97;5.70;;;7.90;99.90;;;;;;5080474;28;20720;-40
2022/02/15 03:00:09;;;;;;;8.30;5.40;;;8.10;99.90;;;;;;5079783;28;21157;-40
2022/02/15 03:02:34;;;;;;;8.83;5.53;;;8.00;99.90;;;;;;5086852;28;20410;-41
2022/02/15 03:05:00;;;;;;;8.20;5.23;;;7.80;99.90;;;;;;5086872;28;20479;-41
2022/02/15 03:07:26;;;;;;;10.90;6.20;;;8.20;99.90;;;;;;5087228;28;20196;-41
2022/02/15 03:09:51;;;;;;;10.00;6.70;;;7.90;99.90;;;;;;5084979;28;20554;-40
2022/02/15 03:12:17;;;;;;;12.87;6.97;;;8.10;99.90;;;;;;5083279;28;20205;-40
2022/02/15 03:14:43;;;;;;;9.80;6.37;;;8.30;99.90;;;;;;5080350;28;20378;-41
2022/02/15 03:17:09;;;;;;;14.03;7.20;;;8.00;99.90;;;;;;5088095;28;20180;-41
2022/02/15 03:19:35;;;;;;;14.50;7.33;;;7.80;99.90;;;;;;5090191;28;20307;-40
2022/02/15 03:22:01;;;;;;;18.50;8.63;;;7.80;99.90;;;;;;5089046;28;20521;-40
2022/02/15 03:24:27;;;;;;;13.60;9.13;;;8.10;99.90;;;;;;5089393;28;20188;-42
2022/02/15 03:26:52;;;;;;;12.27;7.77;;;8.00;99.90;;;;;;5090405;28;20180;-40
2022/02/15 03:29:18;;;;;;;15.33;8.53;;;7.90;99.90;;;;;;5080879;28;20523;-40
2022/02/15 03:31:44;;;;;;;13.30;8.50;;;8.00;99.90;;;;;;5089473;28;20185;-40
2022/02/15 03:34:10;;;;;;;14.43;7.93;;;8.00;99.90;;;;;;5090536;28;20196;-40
2022/02/15 03:36:36;;;;;;;12.23;7.93;;;7.90;99.90;;;;;;5090521;28;20207;-42
2022/02/15 03:39:05;;;;;;;13.00;8.27;;;8.10;99.90;;;;;;5090413;28;20968;-41
2022/02/15 03:44:16;;;;;;;11.23;7.87;;;8.10;99.90;;;;;;5084458;28;20887;-42
2022/02/15 03:46:42;;;;;;;14.20;7.97;;;8.10;99.90;;;;;;5089683;28;20447;-43
2022/02/15 03:49:11;;;;;;;13.30;8.70;;;7.90;99.90;;;;;;5090300;28;20424;-40
2022/02/15 03:51:39;;;;;;;11.70;8.80;;;7.70;99.90;;;;;;5089467;28;20192;-42
2022/02/15 03:54:06;;;;;;;12.70;8.60;;;7.80;99.90;;;;;;5090471;28;20426;-44
2022/02/15 03:56:33;;;;;;;12.13;8.70;;;7.90;99.90;;;;;;5089766;28;20864;-40
2022/02/15 03:59:00;;;;;;;13.43;8.90;;;7.70;99.90;;;;;;5076058;28;20547;-41
2022/02/15 04:01:26;;;;;;;11.60;9.03;;;7.70;99.90;;;;;;5089214;28;20427;-40
2022/02/15 04:03:52;;;;;;;14.53;9.10;;;7.90;99.90;;;;;;5089942;28;20441;-40
2022/02/15 04:06:17;;;;;;;13.57;9.90;;;7.60;99.90;;;;;;5089869;28;20433;-42
2022/02/15 04:08:43;;;;;;;16.23;9.33;;;7.60;99.90;;;;;;5089709;28;20187;-40
2022/02/15 04:11:08;;;;;;;12.00;9.33;;;7.60;99.90;;;;;;5088616;28;20184;-42
2022/02/15 04:13:34;;;;;;;13.77;9.53;;;7.80;99.90;;;;;;5080370;28;20177;-40
2022/02/15 04:16:00;;;;;;;16.00;10.33;;;7.60;99.90;;;;;;5089877;28;20185;-39
2022/02/15 04:18:25;;;;;;;13.77;10.47;;;7.70;99.90;;;;;;5089330;28;20181;-40
2022/02/15 04:20:51;;;;;;;12.40;9.80;;;7.60;99.90;;;;;;5088926;28;20185;-41
2022/02/15 04:23:17;;;;;;;13.87;10.77;;;7.70;99.90;;;;;;5089198;28;20196;-40
2022/02/15 04:25:42;;;;;;;13.53;9.47;;;7.60;99.90;;;;;;5089456;28;20177;-40
2022/02/15 04:28:08;;;;;;;14.63;9.90;;;7.80;99.90;;;;;;5082717;28;20716;-40
2022/02/15 04:30:35;;;;;;;13.07;9.90;;;7.70;99.90;;;;;;5081496;28;20546;-41
2022/02/15 04:33:01;;;;;;;15.47;9.90;;;7.80;99.90;;;;;;5089443;28;20195;-40
2022/02/15 04:35:27;;;;;;;14.20;10.07;;;7.40;99.90;;;;;;5089255;28;20426;-41
2022/02/15 04:37:53;;;;;;;15.33;9.70;;;7.60;99.90;;;;;;5087954;28;20514;-40
2022/02/15 04:40:19;;;;;;;17.33;10.60;;;7.50;99.90;;;;;;5088849;28;20546;-42
2022/02/15 04:42:45;;;;;;;18.43;10.90;;;7.50;99.90;;;;;;5086508;28;20413;-41
2022/02/15 04:45:12;;;;;;;14.23;9.73;;;7.70;99.90;;;;;;5080513;28;20416;-40
2022/02/15 04:47:40;;;;;;;16.60;10.80;;;7.60;99.90;;;;;;5089076;28;20852;-41
2022/02/15 04:50:06;;;;;;;13.70;9.47;;;7.50;99.90;;;;;;5075166;28;20792;-40
2022/02/15 04:52:32;;;;;;;14.20;10.23;;;7.60;99.90;;;;;;5087507;28;20472;-43
2022/02/15 04:54:57;;;;;;;16.60;11.00;;;7.70;99.90;;;;;;5088776;28;20860;-40
2022/02/15 04:57:23;;;;;;;14.20;11.13;;;7.60;99.90;;;;;;5088609;28;20441;-41
2022/02/15 04:59:48;;;;;;;17.77;11.13;;;7.60;99.90;;;;;;5080897;28;20362;-40
2022/02/15 05:02:14;;;;;;;18.17;10.40;;;7.80;99.90;;;;;;5088763;28;20189;-41
2022/02/15 05:04:49;;;;;;;13.10;9.33;;;7.60;99.90;;;;;;5087204;28;20173;-40
2022/02/15 05:07:19;;;;;;;15.03;10.60;;;7.80;99.90;;;;;;5087283;28;20267;-42
2022/02/15 05:09:45;;;;;;;15.03;10.03;;;7.60;99.90;;;;;;5085696;28;20959;-40
2022/02/15 05:12:12;;;;;;;13.57;10.07;;;7.50;99.90;;;;;;5088480;28;20453;-42
2022/02/15 05:14:38;;;;;;;15.93;10.47;;;7.40;99.90;;;;;;5078402;28;20743;-40
2022/02/15 05:17:04;;;;;;;14.53;9.43;;;7.60;99.90;;;;;;5086885;28;20846;-40
2022/02/15 05:19:30;;;;;;;15.43;9.47;;;7.50;99.90;;;;;;5088377;28;20616;-40
2022/02/15 05:21:56;;;;;;;14.83;10.33;;;7.50;99.90;;;;;;5088035;28;20498;-40
2022/02/15 05:24:22;;;;;;;12.73;9.67;;;7.30;99.90;;;;;;5088809;28;20517;-39
2022/02/15 05:26:47;;;;;;;13.40;9.30;;;7.20;99.90;;;;;;5088116;28;20187;-40
2022/02/15 05:29:13;;;;;;;13.10;9.70;;;7.30;99.90;;;;;;5077184;28;20660;-40
2022/02/15 05:31:39;;;;;;;12.87;9.00;;;7.20;99.90;;;;;;5086801;28;20358;-40
2022/02/15 05:34:05;;;;;;;15.27;10.00;;;7.50;99.90;;;;;;5088133;28;20245;-41
2022/02/15 05:36:33;;;;;;;16.10;8.90;;;7.30;99.90;;;;;;5087770;28;20193;-39
2022/02/15 05:39:00;;;;;;;15.47;9.37;;;7.30;99.90;;;;;;5082295;28;20240;-40
2022/02/15 05:41:26;;;;;;;12.50;8.30;;;7.30;99.90;;;;;;5079178;28;20830;-41
2022/02/15 05:43:51;;;;;;;18.37;9.37;;;7.30;99.90;;;;;;5084676;28;20553;-40
2022/02/15 05:46:17;;;;;;;14.20;8.93;;;7.50;99.90;;;;;;5083119;28;20534;-40
2022/02/15 05:48:43;;;;;;;13.83;10.17;;;7.50;99.90;;;;;;5087964;28;20176;-40
2022/02/15 05:51:08;;;;;;;13.57;10.13;;;7.50;99.90;;;;;;5086050;28;20181;-43
2022/02/15 05:53:34;;;;;;;17.03;10.07;;;7.50;99.90;;;;;;5087417;28;20487;-40
2022/02/15 05:56:02;;;;;;;12.60;8.97;;;7.40;99.90;;;;;;5088004;28;20612;-40
2022/02/15 05:58:30;;;;;;;13.17;8.83;;;7.40;99.90;;;;;;5084605;28;20205;-41
2022/02/15 06:01:00;;;;;;;14.87;9.00;;;7.50;99.90;;;;;;5081840;28;20446;-42
2022/02/15 06:06:10;;;;;;;16.50;9.60;;;7.40;99.90;;;;;;5085297;28;20533;-40
2022/02/15 06:08:36;;;;;;;14.67;10.40;;;7.40;99.90;;;;;;5083328;28;20524;-41
2022/02/15 06:11:03;;;;;;;13.87;9.67;;;7.40;99.90;;;;;;5082327;28;20255;-43
2022/02/15 06:13:30;;;;;;;16.03;9.90;;;7.40;99.90;;;;;;5084063;28;20591;-40
2022/02/15 06:15:55;;;;;;;13.07;9.80;;;7.40;99.90;;;;;;5081888;28;20513;-42
2022/02/15 06:18:21;;;;;;;19.13;10.80;;;7.60;99.90;;;;;;5087485;28;20501;-39
2022/02/15 06:20:47;;;;;;;17.40;11.30;;;7.30;99.90;;;;;;5085348;28;20211;-41
2022/02/15 06:23:13;;;;;;;14.53;10.50;;;7.20;99.90;;;;;;5087370;28;20457;-42
2022/02/15 06:25:39;;;;;;;13.77;9.80;;;7.20;99.90;;;;;;5085335;28;20450;-42
2022/02/15 06:28:05;;;;;;;16.53;11.30;;;7.20;99.90;;;;;;5086406;28;20517;-41
2022/02/15 06:30:31;;;;;;;16.53;11.13;;;7.40;99.90;;;;;;5073252;28;20597;-42
2022/02/15 06:32:56;;;;;;;18.13;12.27;;;7.20;99.90;;;;;;5083375;28;20191;-40
2022/02/15 06:35:22;;;;;;;17.40;11.20;;;7.10;99.90;;;;;;5086650;28;20796;-40
2022/02/15 06:37:52;;;;;;;16.80;10.80;;;7.10;99.90;;;;;;5081666;28;20245;-40
2022/02/15 06:40:20;;;;;;;14.83;10.90;;;7.20;99.90;;;;;;5085898;28;20263;-42
2022/02/15 06:42:47;;;;;;;12.90;9.63;;;7.10;99.90;;;;;;5079396;28;20513;-41
2022/02/15 06:45:13;;;;;;;15.27;9.80;;;7.20;99.90;;;;;;5077648;28;20435;-40
2022/02/15 06:47:39;;;;;;;14.10;10.77;;;7.20;99.90;;;;;;5085891;28;20835;-41
2022/02/15 06:50:06;;;;;;;16.53;11.07;;;7.20;99.90;;;;;;5084845;28;20423;-41
2022/02/15 06:52:32;;;;;;;14.27;10.77;;;7.20;99.90;;;;;;5087497;28;20461;-41
2022/02/15 06:54:58;;;;;;;14.33;10.13;;;7.40;99.90;;;;;;5089186;28;20458;-42
2022/02/15 06:57:24;;;;;;;16.03;11.50;;;7.20;99.90;;;;;;5089609;28;20816;-39
2022/02/15 06:59:50;;;;;;;15.67;9.73;;;7.20;99.90;;;;;;5078119;28;20450;-41
2022/02/15 07:02:19;;;;;;;15.57;9.20;;;7.30;99.90;;;;;;5086489;28;20227;-40
2022/02/15 07:04:45;;;;;;;13.23;10.17;;;7.30;99.90;;;;;;5087584;28;20452;-40
2022/02/15 07:07:12;;;;;;;13.43;9.20;;;7.20;99.90;;;;;;5091037;28;20773;-40
2022/02/15 07:09:37;;;;;;;11.23;7.93;;;7.30;99.90;;;;;;5090549;28;20445;-40
2022/02/15 07:12:03;;;;;;;12.30;8.13;;;7.60;99.90;;;;;;5090256;28;20433;-39
2022/02/15 07:14:29;;;;;;;11.80;7.63;;;7.40;99.90;;;;;;5083992;28;20189;-40
2022/02/15 07:16:55;;;;;;;12.83;7.70;;;7.30;99.90;;;;;;5085908;28;20426;-40
2022/02/15 07:19:20;;;;;;;10.73;7.87;;;7.40;99.90;;;;;;5090558;28;20266;-39
2022/02/15 07:21:47;;;;;;;21.40;7.50;;;7.20;99.90;;;;;;5089450;28;20177;-41
2022/02/15 07:24:13;;;;;;;8.87;6.40;;;7.30;99.90;;;;;;5090763;28;20616;-41
2022/02/15 07:26:38;;;;;;;9.20;7.03;;;7.30;99.90;;;;;;5090237;28;20430;-40
2022/02/15 07:29:04;;;;;;;7.50;6.23;;;7.40;99.90;;;;;;5090318;28;20807;-40
2022/02/15 07:31:30;;;;;;;8.20;7.00;;;7.60;99.90;;;;;;5088727;28;20188;-40
2022/02/15 07:33:55;;;;;;;9.43;6.83;;;7.60;99.90;;;;;;5090687;28;20203;-40
2022/02/15 07:36:21;;;;;;;14.70;7.53;;;7.50;99.90;;;;;;5090225;28;20189;-41
2022/02/15 07:38:47;;;;;;;9.80;7.43;;;7.40;99.90;;;;;;5090289;28;20184;-40
2022/02/15 07:41:12;;;;;;;10.27;7.20;;;7.40;99.90;;;;;;5089733;28;20232;-39
2022/02/15 07:43:38;;;;;;;12.07;7.70;;;7.20;99.90;;;;;;5090610;28;20224;-40
2022/02/15 07:46:06;;;;;;;9.40;7.87;;;7.30;99.90;;;;;;5081294;28;20625;-39
2022/02/15 07:48:32;;;;;;;11.03;8.67;;;7.30;99.90;;;;;;5088884;28;20185;-39
2022/02/15 07:50:57;;;;;;;12.47;8.93;;;7.60;99.90;;;;;;5089309;28;20434;-41
2022/02/15 07:53:23;;;;;;;15.30;8.93;;;7.40;99.90;;;;;;5088164;28;20192;-40
2022/02/15 07:55:49;;;;;;;11.20;8.87;;;7.40;99.90;;;;;;5089601;28;20236;-42
2022/02/15 07:58:14;;;;;;;16.33;10.00;;;7.50;99.90;;;;;;5089546;28;20188;-42
2022/02/15 08:00:40;;;;;;;12.60;8.93;;;7.70;99.90;;;;;;5083337;28;20248;-40
2022/02/15 08:03:06;;;;;;;15.57;10.00;;;7.50;99.90;;;;;;5088337;28;20176;-40
2022/02/15 08:05:32;;;;;;;13.80;10.53;;;7.70;99.90;;;;;;5088008;28;20238;-39
2022/02/15 08:07:58;;;;;;;15.23;9.93;;;7.60;99.90;;;;;;5089150;28;20180;-40
2022/02/15 08:10:25;;;;;;;14.30;10.20;;;7.70;99.90;;;;;;5088013;28;20449;-41
2022/02/15 08:12:57;;;;;;;16.03;11.93;;;7.50;99.90;;;;;;5089799;28;20426;-41
2022/02/15 08:15:31;;;;;;;19.90;12.33;;;7.40;99.90;;;;;;5078533;28;20992;-45
2022/02/15 08:17:59;;;;;;;14.37;10.63;;;7.40;99.90;;;;;;5086596;28;20949;-41
2022/02/15 08:20:25;;;;;;;15.73;11.30;;;7.40;99.90;;;;;;5088643;28;20462;-40
2022/02/15 08:22:51;;;;;;;13.00;10.93;;;7.50;99.90;;;;;;5089526;28;20414;-42
2022/02/15 08:25:18;;;;;;;17.27;12.27;;;7.40;99.90;;;;;;5089150;28;20449;-39
2022/02/15 08:27:44;;;;;;;19.50;11.90;;;7.60;99.90;;;;;;5087817;28;20426;-43
2022/02/15 08:30:11;;;;;;;14.40;12.20;;;7.50;99.90;;;;;;5083040;28;20438;-40
2022/02/15 08:32:37;;;;;;;15.30;11.43;;;7.50;99.90;;;;;;5088923;28;20484;-39
2022/02/15 08:35:05;;;;;;;19.87;13.27;;;7.70;99.90;;;;;;5089184;28;20501;-43
2022/02/15 08:37:32;;;;;;;15.10;10.90;;;7.50;99.90;;;;;;5089249;28;20453;-41
2022/02/15 08:39:59;;;;;;;20.10;13.47;;;7.60;99.90;;;;;;5088140;28;20870;-41
2022/02/15 08:42:25;;;;;;;20.90;14.80;;;7.60;99.90;;;;;;5088948;28;20455;-43
2022/02/15 08:44:53;;;;;;;19.67;13.43;;;7.60;99.90;;;;;;5082554;28;20462;-39
2022/02/15 08:47:21;;;;;;;20.47;13.60;;;7.60;99.90;;;;;;5078532;28;20415;-39
2022/02/15 08:49:50;;;;;;;18.87;13.53;;;7.50;99.90;;;;;;5087359;28;20818;-39
2022/02/15 08:52:15;;;;;;;21.47;13.97;;;7.80;99.90;;;;;;5088919;28;20426;-41
2022/02/15 08:54:41;;;;;;;23.20;13.33;;;7.60;99.90;;;;;;5088448;28;20843;-40
2022/02/15 08:57:09;;;;;;;17.80;12.87;;;7.60;99.90;;;;;;5088730;28;20430;-40
2022/02/15 08:59:36;;;;;;;19.43;12.60;;;7.80;99.90;;;;;;5085883;28;20205;-40
2022/02/15 09:02:03;;;;;;;20.63;13.17;;;7.70;99.90;;;;;;5084781;28;20498;-42
2022/02/15 09:04:28;;;;;;;17.33;11.93;;;7.60;99.90;;;;;;5088718;28;20509;-49
2022/02/15 09:06:54;;;;;;;15.60;12.17;;;7.80;99.90;;;;;;5088568;28;20417;-41
2022/02/15 09:09:20;;;;;;;17.00;11.63;;;8.00;99.90;;;;;;5088392;28;20218;-40
2022/02/15 09:11:46;;;;;;;18.13;12.20;;;7.80;99.90;;;;;;5086933;28;20195;-40
2022/02/15 09:14:12;;;;;;;17.40;11.70;;;7.80;99.90;;;;;;5088300;28;20418;-41
2022/02/15 09:16:38;;;;;;;16.80;12.20;;;7.90;99.90;;;;;;5073745;28;20196;-39
2022/02/15 09:19:04;;;;;;;16.70;10.93;;;7.80;99.90;;;;;;5088268;28;20212;-41
2022/02/15 09:21:30;;;;;;;14.73;11.70;;;8.00;99.90;;;;;;5087633;28;20476;-40
2022/02/15 09:23:57;;;;;;;17.57;12.30;;;7.90;99.90;;;;;;5087889;28;20426;-40
2022/02/15 09:26:22;;;;;;;15.43;11.30;;;7.90;99.90;;;;;;5088210;28;20433;-42
2022/02/15 09:28:48;;;;;;;18.20;11.00;;;8.00;99.90;;;;;;5088175;28;20431;-39
2022/02/15 09:31:14;;;;;;;16.33;11.63;;;8.00;99.90;;;;;;5076042;28;20246;-40
2022/02/15 09:33:41;;;;;;;14.80;11.13;;;8.10;99.90;;;;;;5088071;28;20189;-43
2022/02/15 09:36:06;;;;;;;16.93;11.00;;;8.00;99.90;;;;;;5088063;28;20427;-40
2022/02/15 09:38:32;;;;;;;14.77;9.90;;;8.00;99.90;;;;;;5087565;28;20426;-39
2022/02/15 09:41:02;;;;;;;15.13;10.57;;;8.00;99.90;;;;;;5087323;28;20216;-40
2022/02/15 09:43:28;;;;;;;11.27;8.50;;;8.00;99.90;;;;;;5087705;28;20196;-39
2022/02/15 09:45:55;;;;;;;12.90;9.77;;;8.20;99.90;;;;;;5080343;28;20460;-40
2022/02/15 09:48:24;;;;;;;14.97;11.07;;;8.00;99.90;;;;;;5086833;28;20502;-40
2022/02/15 09:50:51;;;;;;;12.50;10.30;;;8.00;99.90;;;;;;5087315;28;20480;-40
2022/02/15 09:53:18;;;;;;;14.33;10.67;;;7.90;99.90;;;;;;5087566;28;20437;-40
2022/02/15 09:55:43;;;;;;;14.87;11.00;;;8.00;99.90;;;;;;5087952;28;20442;-42
2022/02/15 09:58:09;;;;;;;14.00;10.13;;;8.00;99.90;;;;;;5087689;28;20803;-41
2022/02/15 10:00:35;;;;;;;15.53;11.83;;;8.10;99.90;;;;;;5080174;28;20722;-40
2022/02/15 10:03:02;;;;;;;13.63;11.57;;;7.80;99.90;;;;;;5083953;28;20603;-39
2022/02/15 10:05:32;;;;;;;15.30;11.43;;;8.00;99.90;;;;;;5087354;28;20219;-41
2022/02/15 10:07:58;;;;;;;19.40;10.47;;;7.80;99.90;;;;;;5075031;28;20418;-43
2022/02/15 10:10:35;;;;;;;15.27;11.83;;;8.00;99.90;;;;;;5084575;28;20426;-40
2022/02/15 10:13:06;;;;;;;13.63;11.10;;;7.70;99.90;;;;;;5087433;28;20421;-42
2022/02/15 10:15:38;;;;;;;15.00;11.17;;;7.80;99.90;;;;;;5080166;28;20454;-44
2022/02/15 10:18:13;;;;;;;14.80;11.63;;;7.50;99.90;;;;;;5081283;28;20410;-40
2022/02/15 10:20:42;;;;;;;14.70;9.77;;;7.70;99.90;;;;;;5086027;28;20822;-43
2022/02/15 10:23:16;;;;;;;17.00;11.43;;;7.70;99.90;;;;;;5086720;28;20437;-40
2022/02/15 10:25:42;;;;;;;14.00;10.00;;;7.70;99.90;;;;;;5083368;28;20437;-41
2022/02/15 10:28:18;;;;;;;13.23;10.87;;;7.80;99.90;;;;;;5093206;28;20834;-39
2022/02/15 10:30:46;;;;;;;12.73;9.73;;;8.10;99.90;;;;;;5086711;28;20461;-40
2022/02/15 10:33:12;;;;;;;9.73;8.53;;;7.90;99.90;;;;;;5089806;28;20807;-41
2022/02/15 10:35:40;;;;;;;11.07;9.20;;;7.90;99.90;;;;;;5093754;28;20421;-40
2022/02/15 10:38:07;;;;;;;14.93;10.13;;;8.20;99.90;;;;;;5094065;28;20465;-41
2022/02/15 10:40:34;;;;;;;11.20;9.40;;;8.10;99.90;;;;;;5093114;28;20470;-40
2022/02/15 10:42:59;;;;;;;12.70;10.53;;;8.10;99.90;;;;;;5093753;28;20430;-43
2022/02/15 10:45:29;;;;;;;11.03;9.00;;;8.10;99.90;;;;;;5091216;28;20438;-40
2022/02/15 10:48:05;;;;;;;13.37;10.27;;;8.10;99.90;;;;;;5089320;28;20726;-40
2022/02/15 10:50:32;;;;;;;12.03;9.80;;;7.90;99.90;;;;;;5093530;28;20825;-40
2022/02/15 10:52:59;;;;;;;16.00;10.70;;;8.20;99.90;;;;;;5093530;28;20478;-40
2022/02/15 10:55:24;;;;;;;12.40;9.50;;;8.00;99.90;;;;;;5093815;28;20940;-40
2022/02/15 10:57:51;;;;;;;13.43;9.90;;;8.20;99.90;;;;;;5093442;28;20449;-39
2022/02/15 11:00:17;;;;;;;11.77;9.80;;;8.00;99.90;;;;;;5091761;28;20207;-39
2022/02/15 11:02:44;;;;;;;14.93;10.80;;;8.00;99.90;;;;;;5086382;28;20429;-40
2022/02/15 11:05:11;;;;;;;14.37;9.70;;;7.90;99.90;;;;;;5093911;28;20675;-40
2022/02/15 11:07:38;;;;;;;13.20;10.13;;;8.30;99.90;;;;;;5094105;28;20506;-40
2022/02/15 11:10:30;;;;;;;14.30;10.17;;;8.20;99.90;;;;;;5092074;28;20713;-40
2022/02/15 11:12:58;;;;;;;12.40;9.70;;;7.90;99.90;;;;;;5081723;28;20532;-40
2022/02/15 11:15:26;;;;;;;13.30;9.70;;;8.10;99.90;;;;;;5091804;28;20487;-40
2022/02/15 11:17:54;;;;;;;14.93;10.47;;;7.70;99.90;;;;;;5080968;28;20479;-41
2022/02/15 11:20:23;;;;;;;11.67;10.23;;;7.80;99.90;;;;;;5092828;28;20454;-40
2022/02/15 11:22:54;;;;;;;14.00;10.33;;;8.20;99.90;;;;;;5093390;28;20427;-39
2022/02/15 11:25:29;;;;;;;16.73;10.50;;;8.20;99.90;;;;;;5093668;28;20422;-40
2022/02/15 11:27:54;;;;;;;14.20;9.90;;;8.20;99.90;;;;;;5093594;28;20781;-40
2022/02/15 11:30:20;;;;;;;10.60;9.23;;;8.20;99.90;;;;;;5091682;28;20429;-40
2022/02/15 11:32:48;;;;;;;10.40;9.10;;;8.50;99.90;;;;;;5078453;28;20189;-42
2022/02/15 11:35:16;;;;;;;12.00;9.43;;;8.50;99.90;;;;;;5093122;28;20426;-43
2022/02/15 11:37:42;;;;;;;14.30;9.20;;;8.50;99.90;;;;;;5093167;28;20426;-41
2022/02/15 11:40:10;;;;;;;10.43;7.83;;;8.60;99.90;;;;;;5089518;28;20562;-39
2022/02/15 11:42:47;;;;;;;8.53;7.23;;;8.40;99.90;;;;;;5090534;28;20445;-43
2022/02/15 11:45:17;;;;;;;9.83;7.77;;;8.50;99.90;;;;;;5090271;28;20418;-41
2022/02/15 11:47:46;;;;;;;10.67;7.63;;;8.60;99.90;;;;;;5078482;28;20529;-43
2022/02/15 11:50:16;;;;;;;7.80;6.70;;;8.90;99.90;;;;;;5089244;28;20426;-40
2022/02/15 11:52:43;;;;;;;11.07;7.10;;;8.90;99.90;;;;;;5090317;28;20450;-41
2022/02/15 11:55:12;;;;;;;10.87;6.60;;;9.20;99.90;;;;;;5089861;28;20839;-41
2022/02/15 11:57:38;;;;;;;7.87;6.20;;;9.20;99.90;;;;;;5090021;28;20427;-40
2022/02/15 12:00:08;;;;;;;7.40;5.90;;;9.10;99.90;;;;;;5089083;28;20461;-40
2022/02/15 12:02:34;;;;;;;7.13;5.90;;;9.10;99.90;;;;;;5080032;28;20445;-40
2022/02/15 12:05:04;;;;;;;6.60;5.43;;;9.00;99.90;;;;;;5089775;28;20813;-41
2022/02/15 12:07:30;;;;;;;7.53;5.27;;;8.90;99.90;;;;;;5090177;28;20418;-41
2022/02/15 12:09:57;;;;;;;5.60;4.53;;;8.90;99.90;;;;;;5088380;28;20522;-41
2022/02/15 12:12:33;;;;;;;5.87;4.00;;;8.90;99.90;;;;;;5089643;28;20438;-41
2022/02/15 12:15:00;;;;;;;5.10;4.43;;;8.90;99.90;;;;;;5089325;28;20460;-40
2022/02/15 12:17:27;;;;;;;4.90;3.80;;;8.80;99.90;;;;;;5083238;28;20792;-41
2022/02/15 12:19:57;;;;;;;4.97;3.83;;;9.10;99.90;;;;;;5088637;28;21069;-40
2022/02/15 12:22:25;;;;;;;7.37;3.90;;;9.00;99.90;;;;;;5089703;28;20513;-40
2022/02/15 12:24:53;;;;;;;8.90;3.60;;;8.80;99.90;;;;;;5089434;28;20867;-40
2022/02/15 12:27:19;;;;;;;7.40;3.83;;;8.80;99.90;;;;;;5089546;28;20830;-40
2022/02/15 12:29:50;;;;;;;5.47;3.30;;;8.80;99.90;;;;;;5089153;28;20445;-41
2022/02/15 12:32:24;;;;;;;7.53;3.60;;;8.90;99.90;;;;;;5081150;28;20439;-41
2022/02/15 12:34:52;;;;;;;3.33;3.00;;;8.50;99.90;;;;;;5084673;28;20425;-40
2022/02/15 12:37:20;;;;;;;7.30;3.57;;;8.70;99.90;;;;;;5087865;28;20941;-39
2022/02/15 12:39:46;;;;;;;4.90;3.53;;;8.50;99.90;;;;;;5088719;28;20971;-40
2022/02/15 12:42:16;;;;;;;7.60;4.30;;;8.40;99.90;;;;;;5089172;28;20457;-42
2022/02/15 12:44:53;;;;;;;5.63;3.30;;;8.50;99.90;;;;;;5089260;28;20440;-41
2022/02/15 12:47:19;;;;;;;5.83;4.00;;;8.50;99.90;;;;;;5079189;28;20415;-40
2022/02/15 12:49:44;;;;;;;5.83;3.63;;;8.60;99.90;;;;;;5087988;28;20422;-41
2022/02/15 12:52:11;;;;;;;3.63;3.30;;;9.00;99.90;;;;;;5088467;28;20217;-40